Time;durP1;ratioP1;P1;durP2;ratioP2;P2;SDS_P1;SDS_P2;PMS_P1;PMS_P2;Temp;Humidity;BMP_temperature;BMP_pressure;BME280_temperature;BME280_humidity;BME280_pressure;Samples;Min_cycle;Max_cycle;Signal;HPM_P1;HPM_P2
2021/08/17 00:01:08;;;;;;;1.50;0.60;;;;;;;16.08;100.00;99973.34;5032742;28;20033;-65
2021/08/17 00:03:34;;;;;;;0.63;0.32;;;;;;;15.97;100.00;99975.41;5045804;28;20082;-66
2021/08/17 00:06:01;;;;;;;4.30;0.60;;;;;;;16.00;100.00;99972.69;5052508;28;20036;-66
2021/08/17 00:08:27;;;;;;;5.28;0.88;;;;;;;16.07;100.00;99966.38;5031838;28;20095;-66
2021/08/17 00:10:53;;;;;;;2.60;0.30;;;;;;;16.21;100.00;99979.78;5046755;28;20041;-66
2021/08/17 00:13:20;;;;;;;4.75;0.47;;;;;;;16.13;100.00;99978.31;5051110;28;20040;-66
2021/08/17 00:15:46;;;;;;;1.25;0.60;;;;;;;16.06;100.00;99981.16;5018073;28;20044;-68
2021/08/17 00:18:11;;;;;;;1.38;0.57;;;;;;;16.09;100.00;99975.66;5044398;28;20041;-66
2021/08/17 00:20:37;;;;;;;1.40;0.50;;;;;;;16.06;100.00;99971.06;5052426;28;20036;-65
2021/08/17 00:23:07;;;;;;;3.33;0.30;;;;;;;15.85;100.00;99975.97;5043474;28;20040;-66
2021/08/17 00:25:34;;;;;;;3.05;0.45;;;;;;;16.03;100.00;99980.00;5062424;28;20028;-66
2021/08/17 00:27:59;;;;;;;1.67;0.32;;;;;;;16.05;100.00;99983.09;5038328;28;20028;-65
2021/08/17 00:30:25;;;;;;;2.90;0.60;;;;;;;16.08;100.00;99985.00;5052417;28;20482;-65
2021/08/17 00:32:51;;;;;;;0.90;0.40;;;;;;;16.04;100.00;99991.66;5047801;28;20036;-67
2021/08/17 00:35:16;;;;;;;2.30;0.40;;;;;;;15.90;100.00;99994.53;5051151;28;20069;-65
2021/08/17 00:37:42;;;;;;;0.70;0.30;;;;;;;15.98;100.00;99993.28;5049145;28;20041;-66
2021/08/17 00:40:08;;;;;;;0.82;0.38;;;;;;;16.00;100.00;99999.84;5050004;28;20405;-66
2021/08/17 00:42:51;;;;;;;0.93;0.40;;;;;;;16.02;100.00;99999.44;5041172;28;20037;-66
2021/08/17 00:45:23;;;;;;;4.00;0.85;;;;;;;15.98;100.00;99994.06;5052228;28;20040;-66
2021/08/17 00:47:53;;;;;;;1.88;0.90;;;;;;;16.12;100.00;99985.69;5040763;28;20025;-65
2021/08/17 00:50:26;;;;;;;3.88;0.40;;;;;;;16.17;100.00;99989.91;5027991;28;20048;-68
2021/08/17 00:52:54;;;;;;;0.82;0.40;;;;;;;15.98;100.00;99994.06;5050648;28;20060;-68
2021/08/17 00:55:20;;;;;;;1.40;0.47;;;;;;;16.01;100.00;99984.31;5051582;28;20020;-67
2021/08/17 00:57:46;;;;;;;1.73;0.50;;;;;;;15.95;100.00;99992.13;5039556;28;20661;-65
2021/08/17 01:00:13;;;;;;;2.45;0.50;;;;;;;16.11;100.00;99996.97;5045518;28;20174;-68
2021/08/17 01:02:38;;;;;;;2.45;0.68;;;;;;;16.03;100.00;99992.81;5045708;28;20037;-65
2021/08/17 01:05:05;;;;;;;1.05;0.63;;;;;;;15.93;100.00;100002.63;5040006;28;20029;-67
2021/08/17 01:07:31;;;;;;;0.93;0.40;;;;;;;15.84;100.00;100002.38;5016120;28;20044;-66
2021/08/17 01:09:56;;;;;;;2.78;0.77;;;;;;;15.97;100.00;99997.94;5047392;28;20037;-66
2021/08/17 01:12:22;;;;;;;7.57;0.60;;;;;;;15.89;100.00;100003.88;5042491;28;20109;-66
2021/08/17 01:14:48;;;;;;;2.70;0.60;;;;;;;16.04;100.00;100011.44;5045807;28;20044;-66
2021/08/17 01:17:16;;;;;;;1.50;0.40;;;;;;;16.13;100.00;100010.94;5045163;28;20043;-68
2021/08/17 01:19:41;;;;;;;1.17;0.70;;;;;;;16.13;100.00;100009.00;5046907;28;20156;-65
2021/08/17 01:22:07;;;;;;;1.15;0.52;;;;;;;16.06;100.00;100006.38;5044348;28;20063;-66
2021/08/17 01:24:32;;;;;;;2.38;0.40;;;;;;;16.07;100.00;100010.63;5048728;28;20056;-68
2021/08/17 01:26:58;;;;;;;3.70;0.90;;;;;;;16.02;100.00;100008.34;5046769;28;20030;-66
2021/08/17 01:29:24;;;;;;;4.28;0.65;;;;;;;15.81;100.00;100013.28;5045459;28;20044;-65
2021/08/17 01:31:51;;;;;;;3.03;0.80;;;;;;;15.92;100.00;100019.34;5031636;28;20476;-66
2021/08/17 01:34:16;;;;;;;2.50;0.57;;;;;;;15.88;100.00;100024.81;5050737;28;20115;-65
2021/08/17 01:36:42;;;;;;;0.52;0.35;;;;;;;16.10;100.00;100017.94;5045464;28;20183;-65
2021/08/17 01:39:08;;;;;;;1.60;0.60;;;;;;;16.02;100.00;100021.94;5041439;28;20045;-66
2021/08/17 01:41:33;;;;;;;1.60;0.65;;;;;;;15.93;100.00;100035.22;5029024;28;20035;-66
2021/08/17 01:44:06;;;;;;;1.50;0.57;;;;;;;16.04;100.00;100037.84;5050356;28;20057;-65
2021/08/17 01:46:32;;;;;;;1.35;0.40;;;;;;;16.09;100.00;100045.53;5031806;28;20037;-66
2021/08/17 01:48:57;;;;;;;3.28;0.55;;;;;;;16.04;100.00;100044.03;5049756;28;20455;-69
2021/08/17 01:51:22;;;;;;;1.20;0.50;;;;;;;16.06;100.00;100058.00;5047009;28;20547;-66
2021/08/17 01:53:48;;;;;;;1.27;0.30;;;;;;;15.91;100.00;100069.41;5049771;28;20039;-66
2021/08/17 01:56:15;;;;;;;1.95;0.50;;;;;;;16.00;100.00;100069.69;5050750;28;20411;-65
2021/08/17 01:58:41;;;;;;;1.15;0.35;;;;;;;16.13;100.00;100074.19;5046556;28;20540;-66
2021/08/17 02:01:09;;;;;;;1.35;0.47;;;;;;;15.91;100.00;100069.41;5036693;28;20036;-66
2021/08/17 02:03:35;;;;;;;0.55;0.55;;;;;;;16.09;100.00;100073.47;5048749;28;20040;-67
2021/08/17 02:06:01;;;;;;;2.20;0.50;;;;;;;16.07;100.00;100069.59;5050817;28;20164;-67
2021/08/17 02:08:26;;;;;;;0.68;0.40;;;;;;;16.06;100.00;100076.22;5032597;28;20029;-69
2021/08/17 02:10:52;;;;;;;3.00;0.52;;;;;;;16.14;100.00;100075.72;5049579;28;20036;-67
2021/08/17 02:13:18;;;;;;;1.10;0.47;;;;;;;16.25;100.00;100091.91;5047905;28;20116;-65
2021/08/17 02:15:45;;;;;;;4.43;0.55;;;;;;;16.19;100.00;100093.53;5032399;28;20060;-65
2021/08/17 02:18:11;;;;;;;2.50;0.45;;;;;;;16.24;100.00;100096.56;5011422;28;20378;-67
2021/08/17 02:20:37;;;;;;;0.30;0.30;;;;;;;16.22;100.00;100098.91;5037558;28;20033;-70
2021/08/17 02:23:02;;;;;;;3.80;0.90;;;;;;;16.26;100.00;100102.38;5038414;28;20167;-65
2021/08/17 02:25:28;;;;;;;4.43;0.68;;;;;;;16.21;100.00;100108.25;5050632;28;20073;-66
2021/08/17 02:27:53;;;;;;;0.65;0.40;;;;;;;16.11;100.00;100109.16;5047241;28;20041;-67
2021/08/17 02:30:19;;;;;;;1.20;0.50;;;;;;;16.18;100.00;100109.06;5042596;28;20037;-66
2021/08/17 02:32:44;;;;;;;0.95;0.40;;;;;;;16.13;100.00;100109.50;5042650;28;20013;-65
2021/08/17 02:35:10;;;;;;;1.17;0.40;;;;;;;16.08;100.00;100111.91;5032577;28;20044;-68
2021/08/17 02:37:36;;;;;;;2.67;0.60;;;;;;;16.12;100.00;100109.94;5047718;28;20037;-69
2021/08/17 02:40:02;;;;;;;1.63;0.60;;;;;;;16.21;100.00;100110.97;5042435;28;20037;-69
2021/08/17 02:42:30;;;;;;;1.48;0.68;;;;;;;16.27;100.00;100105.88;5049179;28;20456;-67
2021/08/17 02:44:55;;;;;;;2.95;0.40;;;;;;;16.13;100.00;100106.81;5036241;28;20064;-70
2021/08/17 02:47:21;;;;;;;0.95;0.60;;;;;;;16.11;100.00;100113.81;5050379;28;20065;-65
2021/08/17 02:49:46;;;;;;;4.07;0.70;;;;;;;15.99;100.00;100111.59;5042932;28;20035;-65
2021/08/17 02:52:11;;;;;;;4.57;0.70;;;;;;;15.94;100.00;100110.13;5049462;28;20491;-65
2021/08/17 02:54:39;;;;;;;1.83;0.82;;;;;;;16.05;100.00;100118.13;5049169;28;20043;-66
2021/08/17 02:57:07;;;;;;;2.83;0.70;;;;;;;16.10;100.00;100117.72;5050230;28;20485;-68
2021/08/17 02:59:34;;;;;;;2.60;1.05;;;;;;;16.06;100.00;100117.75;5030466;28;20078;-66
2021/08/17 03:01:59;;;;;;;1.20;0.60;;;;;;;15.94;100.00;100115.53;5058523;28;20027;-66
2021/08/17 03:04:25;;;;;;;7.72;0.77;;;;;;;16.00;100.00;100116.66;5040766;28;20481;-66
2021/08/17 03:06:51;;;;;;;1.08;0.80;;;;;;;15.93;100.00;100119.41;5051958;28;20040;-65
2021/08/17 03:09:16;;;;;;;1.15;0.70;;;;;;;15.85;100.00;100117.94;5025866;28;20037;-66
2021/08/17 03:11:41;;;;;;;5.03;0.65;;;;;;;15.76;100.00;100125.03;5044158;28;20025;-69
2021/08/17 03:14:07;;;;;;;2.85;0.60;;;;;;;15.83;100.00;100122.25;5051173;28;20033;-67
2021/08/17 03:16:32;;;;;;;2.63;0.50;;;;;;;15.92;100.00;100120.59;5032125;28;20041;-66
2021/08/17 03:19:00;;;;;;;4.43;0.52;;;;;;;15.79;100.00;100130.44;5043565;28;20033;-65
2021/08/17 03:21:25;;;;;;;1.08;0.73;;;;;;;16.06;100.00;100133.28;5050699;28;20040;-66
2021/08/17 03:23:51;;;;;;;1.33;0.60;;;;;;;15.91;100.00;100127.19;5039294;28;20732;-68
2021/08/17 03:26:16;;;;;;;0.60;0.40;;;;;;;15.86;100.00;100130.38;5035691;28;20037;-68
2021/08/17 03:28:42;;;;;;;2.78;0.65;;;;;;;15.95;100.00;100127.19;5051881;28;20108;-65
2021/08/17 03:31:08;;;;;;;1.35;0.73;;;;;;;15.77;100.00;100126.59;5050760;28;20036;-69
2021/08/17 03:33:34;;;;;;;0.85;0.52;;;;;;;15.88;100.00;100138.88;5046461;28;20036;-66
2021/08/17 03:36:00;;;;;;;3.28;0.93;;;;;;;15.96;100.00;100136.88;5050880;28;20048;-68
2021/08/17 03:38:26;;;;;;;0.98;0.50;;;;;;;15.80;100.00;100148.25;5034618;28;20025;-67
2021/08/17 03:40:51;;;;;;;2.63;0.70;;;;;;;15.84;100.00;100142.78;5040780;28;20041;-65
2021/08/17 03:43:17;;;;;;;2.00;0.75;;;;;;;15.93;100.00;100141.16;5037477;28;20073;-68
2021/08/17 03:45:43;;;;;;;2.70;0.63;;;;;;;15.90;100.00;100152.06;5035772;28;20029;-68
2021/08/17 03:48:09;;;;;;;2.60;0.70;;;;;;;15.79;100.00;100157.59;5032476;28;20045;-68
2021/08/17 03:50:35;;;;;;;6.43;1.20;;;;;;;15.71;100.00;100150.69;5021977;28;20477;-65
2021/08/17 03:53:00;;;;;;;1.50;1.00;;;;;;;15.84;100.00;100153.66;5051127;28;20029;-67
2021/08/17 03:55:27;;;;;;;4.32;1.05;;;;;;;15.77;100.00;100159.16;5057940;28;20449;-68
2021/08/17 03:57:52;;;;;;;4.50;0.70;;;;;;;15.81;100.00;100152.53;5048213;28;20068;-68
2021/08/17 04:00:21;;;;;;;1.38;0.60;;;;;;;15.76;100.00;100152.19;5043498;28;20060;-67
2021/08/17 04:02:47;;;;;;;2.67;0.82;;;;;;;15.77;100.00;100154.50;5042416;28;20029;-67
2021/08/17 04:05:12;;;;;;;2.08;0.60;;;;;;;15.68;100.00;100158.88;5040935;28;20033;-68
2021/08/17 04:07:38;;;;;;;2.67;0.60;;;;;;;15.87;100.00;100153.63;5059251;28;20036;-67
2021/08/17 04:10:06;;;;;;;1.70;0.70;;;;;;;15.95;100.00;100138.06;5050730;28;20497;-67
2021/08/17 04:12:31;;;;;;;1.50;0.75;;;;;;;15.86;100.00;100157.53;5046572;28;20037;-67
2021/08/17 04:14:57;;;;;;;0.55;0.50;;;;;;;15.96;100.00;100145.78;5049982;28;20520;-68
2021/08/17 04:17:22;;;;;;;4.13;0.75;;;;;;;16.07;100.00;100157.31;5048770;28;20037;-68
2021/08/17 04:19:48;;;;;;;3.00;0.80;;;;;;;16.06;100.00;100160.44;5049246;28;20039;-67
2021/08/17 04:22:13;;;;;;;1.63;0.60;;;;;;;15.98;100.00;100164.41;5048350;28;20040;-67
2021/08/17 04:24:39;;;;;;;0.70;0.70;;;;;;;15.90;100.00;100171.06;5051153;28;20067;-67
2021/08/17 04:27:04;;;;;;;2.85;0.60;;;;;;;15.91;100.00;100176.09;5040534;28;20091;-67
2021/08/17 04:29:30;;;;;;;0.50;0.47;;;;;;;16.08;100.00;100167.03;5035380;28;20034;-67
2021/08/17 04:31:56;;;;;;;1.00;0.65;;;;;;;15.97;100.00;100176.41;5037069;28;20033;-69
2021/08/17 04:34:21;;;;;;;5.32;0.90;;;;;;;16.05;100.00;100189.53;5035215;28;20040;-68
2021/08/17 04:36:47;;;;;;;1.60;0.38;;;;;;;16.09;100.00;100200.38;5037960;28;20091;-68
2021/08/17 04:39:13;;;;;;;0.95;0.63;;;;;;;16.07;100.00;100200.78;5050892;28;20061;-69
2021/08/17 04:41:39;;;;;;;0.77;0.68;;;;;;;15.96;100.00;100205.53;5027628;28;20040;-67
2021/08/17 04:44:05;;;;;;;0.65;0.43;;;;;;;15.87;100.00;100190.91;5025032;28;20029;-67
2021/08/17 04:46:30;;;;;;;2.65;0.80;;;;;;;15.85;100.00;100199.41;5018981;28;20036;-67
2021/08/17 04:48:56;;;;;;;2.33;0.77;;;;;;;15.81;100.00;100190.56;5007496;28;20497;-68
2021/08/17 04:51:21;;;;;;;0.52;0.40;;;;;;;15.91;100.00;100194.34;5041267;28;20033;-68
2021/08/17 04:53:47;;;;;;;3.30;0.75;;;;;;;15.84;100.00;100197.88;5051581;28;20029;-67
2021/08/17 04:56:12;;;;;;;2.17;0.90;;;;;;;15.84;100.00;100199.81;5037530;28;20028;-68
2021/08/17 04:58:38;;;;;;;3.42;1.10;;;;;;;15.88;100.00;100203.28;5038521;28;20045;-68
2021/08/17 05:01:03;;;;;;;1.52;0.60;;;;;;;15.93;100.00;100217.19;5056453;28;20032;-68
2021/08/17 05:03:29;;;;;;;2.83;1.05;;;;;;;15.98;100.00;100224.16;5035960;28;20041;-69
2021/08/17 05:05:55;;;;;;;1.50;0.70;;;;;;;16.03;100.00;100226.44;5034728;28;20116;-68
2021/08/17 05:08:20;;;;;;;1.85;0.85;;;;;;;15.94;100.00;100232.34;5037387;28;20100;-68
2021/08/17 05:10:46;;;;;;;1.40;1.00;;;;;;;15.93;100.00;100232.75;5047196;28;20033;-66
2021/08/17 05:13:12;;;;;;;1.90;1.00;;;;;;;16.00;100.00;100232.69;5043738;28;20037;-65
2021/08/17 05:15:37;;;;;;;1.77;1.00;;;;;;;16.04;100.00;100231.47;5043885;28;20108;-68
2021/08/17 05:18:03;;;;;;;5.68;2.53;;;;;;;15.94;100.00;100231.56;5031457;28;20091;-66
2021/08/17 05:20:30;;;;;;;2.78;0.80;;;;;;;15.93;100.00;100233.50;5027912;28;20037;-67
2021/08/17 05:22:56;;;;;;;2.92;1.00;;;;;;;16.08;100.00;100236.88;5035054;28;20075;-67
2021/08/17 05:25:21;;;;;;;2.92;1.05;;;;;;;16.08;100.00;100237.66;5047628;28;20075;-68
2021/08/17 05:27:47;;;;;;;3.00;1.15;;;;;;;16.08;100.00;100245.81;5029508;28;20167;-68
2021/08/17 05:30:13;;;;;;;2.35;0.88;;;;;;;16.12;100.00;100241.09;5045126;28;20037;-67
2021/08/17 05:32:39;;;;;;;4.22;1.83;;;;;;;16.04;100.00;100245.06;5031498;28;20060;-68
2021/08/17 05:35:05;;;;;;;5.18;1.30;;;;;;;16.17;100.00;100234.47;5037068;28;20036;-68
2021/08/17 05:37:31;;;;;;;2.50;1.42;;;;;;;16.30;100.00;100238.22;5033503;28;20033;-68
2021/08/17 05:39:56;;;;;;;6.40;1.58;;;;;;;16.53;100.00;100234.91;5042520;28;20067;-67
2021/08/17 05:42:23;;;;;;;5.97;1.30;;;;;;;16.56;100.00;100237.59;5039434;28;20470;-67
2021/08/17 05:44:49;;;;;;;2.97;1.40;;;;;;;16.62;100.00;100235.97;5040901;28;20489;-68
2021/08/17 05:47:14;;;;;;;2.25;1.08;;;;;;;16.74;100.00;100240.88;5058470;28;20043;-68
2021/08/17 05:49:40;;;;;;;2.15;1.15;;;;;;;16.56;100.00;100245.75;5050777;28;20063;-67
2021/08/17 05:52:11;;;;;;;5.38;1.70;;;;;;;16.57;100.00;100249.25;5037707;28;20066;-67
2021/08/17 05:54:37;;;;;;;;;;;;;;;16.36;100.00;100252.13;5050507;28;20038;-68
2021/08/17 05:57:03;;;;;;;2.92;1.42;;;;;;;16.55;100.00;100240.72;5035116;28;19971;-67
2021/08/17 05:59:29;;;;;;;6.28;1.48;;;;;;;16.48;100.00;100248.91;5038063;28;20026;-68
2021/08/17 06:01:56;;;;;;;5.63;2.28;;;;;;;16.35;100.00;100247.88;5032952;28;20068;-68
2021/08/17 06:04:21;;;;;;;2.55;1.50;;;;;;;16.50;100.00;100249.31;5031832;28;20065;-68
2021/08/17 06:06:48;;;;;;;3.15;1.42;;;;;;;16.47;100.00;100250.09;5035796;28;20064;-67
2021/08/17 06:09:19;;;;;;;8.57;1.65;;;;;;;16.54;100.00;100250.81;5034101;28;20451;-68
2021/08/17 06:11:45;;;;;;;4.63;1.42;;;;;;;16.56;100.00;100258.56;5001702;28;20037;-67
2021/08/17 06:14:11;;;;;;;3.08;1.23;;;;;;;16.47;100.00;100252.81;5028130;28;20051;-69
2021/08/17 06:16:39;;;;;;;9.60;2.03;;;;;;;16.55;100.00;100262.47;5052691;28;20537;-68
2021/08/17 06:19:07;;;;;;;2.85;1.67;;;;;;;16.43;100.00;100260.22;5036865;28;20032;-66
2021/08/17 06:21:34;;;;;;;4.57;1.00;;;;;;;16.54;100.00;100260.91;5032703;28;20060;-67
2021/08/17 06:24:00;;;;;;;3.00;1.40;;;;;;;16.44;100.00;100256.31;5014566;28;20086;-68
2021/08/17 06:26:25;;;;;;;9.05;1.10;;;;;;;16.66;100.00;100268.56;5035747;28;20123;-68
2021/08/17 06:28:51;;;;;;;3.22;1.08;;;;;;;16.56;100.00;100258.56;5038354;28;20032;-66
2021/08/17 06:31:23;;;;;;;7.60;1.20;;;;;;;16.54;100.00;100277.22;5032130;28;20030;-69
2021/08/17 06:33:57;;;;;;;1.73;1.15;;;;;;;16.70;100.00;100272.78;5033994;28;20041;-67
2021/08/17 06:36:23;;;;;;;4.25;1.33;;;;;;;16.81;100.00;100269.94;5047630;28;20116;-69
2021/08/17 06:38:49;;;;;;;3.25;1.38;;;;;;;16.81;100.00;100268.00;5049781;28;20439;-69
2021/08/17 06:41:14;;;;;;;5.38;1.10;;;;;;;16.87;100.00;100262.88;5038324;28;20041;-68
2021/08/17 06:43:41;;;;;;;4.07;1.15;;;;;;;17.06;100.00;100267.69;5056790;28;20064;-67
2021/08/17 06:46:07;;;;;;;4.47;1.38;;;;;;;17.35;100.00;100274.31;5045346;28;20040;-68
2021/08/17 06:48:33;;;;;;;2.97;1.30;;;;;;;17.37;100.00;100271.97;5038276;28;20040;-67
2021/08/17 06:50:59;;;;;;;3.58;1.70;;;;;;;17.32;100.00;100282.53;5044488;28;20401;-68
2021/08/17 06:53:24;;;;;;;4.75;1.20;;;;;;;17.34;100.00;100277.47;5045210;28;20033;-68
2021/08/17 06:55:50;;;;;;;2.42;1.02;;;;;;;17.37;100.00;100271.19;5045601;28;20037;-67
2021/08/17 06:58:15;;;;;;;3.22;1.00;;;;;;;17.52;100.00;100278.00;5044060;28;20044;-67
2021/08/17 07:00:46;;;;;;;3.58;1.20;;;;;;;17.60;100.00;100293.84;5034078;28;20047;-69
2021/08/17 07:03:12;;;;;;;3.28;0.80;;;;;;;17.50;100.00;100280.38;5038061;28;20029;-68
2021/08/17 07:05:43;;;;;;;1.77;0.80;;;;;;;17.41;100.00;100275.41;5033559;28;20036;-66
2021/08/17 07:08:10;;;;;;;1.00;0.90;;;;;;;17.24;100.00;100279.16;5036031;28;20071;-67
2021/08/17 07:10:37;;;;;;;2.22;0.98;;;;;;;17.10;100.00;100282.03;5031171;28;20033;-68
2021/08/17 07:13:03;;;;;;;2.45;1.27;;;;;;;17.11;100.00;100273.47;5033072;28;20083;-68
2021/08/17 07:15:29;;;;;;;2.63;0.90;;;;;;;16.85;100.00;100281.56;5014066;28;20037;-67
2021/08/17 07:17:55;;;;;;;2.53;0.95;;;;;;;16.85;100.00;100282.34;5032577;28;20071;-68
2021/08/17 07:20:21;;;;;;;1.65;0.77;;;;;;;16.87;100.00;100285.44;5037485;28;20111;-68
2021/08/17 07:22:46;;;;;;;3.60;1.05;;;;;;;16.89;100.00;100279.56;5033097;28;20042;-68
2021/08/17 07:25:13;;;;;;;3.35;0.95;;;;;;;16.99;100.00;100281.41;5052517;28;20087;-68
2021/08/17 07:27:38;;;;;;;4.22;0.88;;;;;;;17.09;100.00;100283.22;5049058;28;20389;-67
2021/08/17 07:30:07;;;;;;;2.95;0.85;;;;;;;17.26;100.00;100279.50;5056318;28;20040;-68
2021/08/17 07:32:33;;;;;;;2.53;0.70;;;;;;;17.37;100.00;100288.28;5046317;28;20108;-67
2021/08/17 07:34:59;;;;;;;3.30;0.88;;;;;;;17.44;100.00;100284.72;5046453;28;20067;-66
2021/08/17 07:37:24;;;;;;;1.13;0.80;;;;;;;17.50;100.00;100285.84;5043517;28;20060;-65
2021/08/17 07:39:50;;;;;;;1.15;0.85;;;;;;;17.48;100.00;100288.16;5028721;28;20453;-66
2021/08/17 07:42:15;;;;;;;1.92;0.90;;;;;;;17.46;100.00;100287.81;5031248;28;20111;-68
2021/08/17 07:44:41;;;;;;;2.22;1.67;;;;;;;17.41;100.00;100283.56;5039385;28;20041;-68
2021/08/17 07:47:06;;;;;;;1.33;0.68;;;;;;;17.31;100.00;100280.97;5040254;28;20036;-65
2021/08/17 07:49:32;;;;;;;2.47;0.60;;;;;;;17.28;100.00;100277.16;5037652;28;20037;-68
2021/08/17 07:51:59;;;;;;;1.42;0.68;;;;;;;17.39;100.00;100287.88;5033568;28;20044;-68
2021/08/17 07:54:24;;;;;;;1.20;0.60;;;;;;;17.32;100.00;100277.09;5040635;28;20048;-67
2021/08/17 07:56:50;;;;;;;0.75;0.60;;;;;;;17.17;100.00;100282.72;5034655;28;20033;-67
2021/08/17 07:59:15;;;;;;;1.42;0.68;;;;;;;17.12;100.00;100287.84;5034138;28;20141;-68
2021/08/17 08:01:41;;;;;;;3.88;0.63;;;;;;;16.99;100.00;100286.84;5026324;28;20048;-66
2021/08/17 08:04:06;;;;;;;1.20;0.75;;;;;;;16.98;100.00;100296.16;5022972;28;20045;-66
2021/08/17 08:06:32;;;;;;;3.75;0.90;;;;;;;16.88;100.00;100288.88;5034696;28;20124;-66
2021/08/17 08:08:57;;;;;;;2.20;0.70;;;;;;;17.02;100.00;100294.19;5040271;28;20033;-67
2021/08/17 08:11:23;;;;;;;0.82;0.63;;;;;;;16.95;100.00;100289.59;5034753;28;20039;-67
2021/08/17 08:13:48;;;;;;;1.25;0.80;;;;;;;16.96;100.00;100293.09;5052169;28;20119;-68
2021/08/17 08:16:14;;;;;;;0.90;0.57;;;;;;;16.89;100.00;100293.16;5033018;28;20548;-67
2021/08/17 08:18:40;;;;;;;1.02;0.70;;;;;;;16.87;100.00;100300.97;5044701;28;20385;-67
2021/08/17 08:21:05;;;;;;;2.50;0.90;;;;;;;16.93;100.00;100293.91;5027202;28;20418;-68
2021/08/17 08:23:31;;;;;;;1.52;0.73;;;;;;;16.81;100.00;100299.88;5048209;28;20461;-69
2021/08/17 08:25:56;;;;;;;1.10;0.60;;;;;;;16.76;100.00;100309.22;5044072;28;20036;-67
2021/08/17 08:28:22;;;;;;;4.05;0.80;;;;;;;16.74;100.00;100314.31;5035787;28;20392;-67
2021/08/17 08:30:47;;;;;;;0.75;0.70;;;;;;;16.78;100.00;100317.75;5050404;28;20035;-68
2021/08/17 08:33:13;;;;;;;1.75;0.80;;;;;;;17.02;100.00;100313.22;5044553;28;20025;-68
2021/08/17 08:35:39;;;;;;;2.60;0.77;;;;;;;17.06;100.00;100322.13;5048614;28;20044;-68
2021/08/17 08:38:04;;;;;;;2.45;1.42;;;;;;;17.09;100.00;100313.16;5048664;28;20029;-67
2021/08/17 08:40:30;;;;;;;2.60;0.73;;;;;;;17.08;100.00;100322.50;5032263;28;20651;-67
2021/08/17 08:42:56;;;;;;;2.05;0.80;;;;;;;16.86;100.00;100319.22;5039405;28;20036;-67
2021/08/17 08:45:21;;;;;;;1.30;0.80;;;;;;;16.82;100.00;100334.06;5049411;28;20037;-68
2021/08/17 08:47:47;;;;;;;1.33;0.90;;;;;;;16.70;100.00;100335.34;5040553;28;20044;-68
2021/08/17 08:50:15;;;;;;;2.60;0.80;;;;;;;16.85;100.00;100325.06;5051445;28;20040;-68
2021/08/17 08:52:41;;;;;;;0.82;0.80;;;;;;;16.67;100.00;100341.56;5046327;28;20413;-68
2021/08/17 08:55:08;;;;;;;4.40;1.02;;;;;;;16.50;100.00;100330.84;5038603;28;20033;-68
2021/08/17 08:57:34;;;;;;;2.08;0.57;;;;;;;16.41;100.00;100335.97;5049229;28;20651;-66
2021/08/17 08:59:59;;;;;;;1.75;0.90;;;;;;;16.16;100.00;100333.47;5033663;28;20040;-67
2021/08/17 09:02:30;;;;;;;1.42;0.60;;;;;;;16.27;100.00;100334.94;5030949;28;20127;-68
2021/08/17 09:04:58;;;;;;;3.20;0.80;;;;;;;16.32;100.00;100338.38;5029967;28;20072;-67
2021/08/17 09:07:34;;;;;;;1.30;0.75;;;;;;;16.15;100.00;100338.13;5034843;28;20029;-67
2021/08/17 09:10:06;;;;;;;4.15;1.02;;;;;;;16.35;100.00;100337.56;5041653;28;20132;-66
2021/08/17 09:12:33;;;;;;;3.78;1.48;;;;;;;16.25;100.00;100337.25;5041333;28;20029;-67
2021/08/17 09:15:28;;;;;;;2.20;1.00;;;;;;;15.95;100.00;100333.63;5038202;28;20043;-66
2021/08/17 09:18:06;;;;;;;2.08;0.85;;;;;;;16.00;100.00;100331.25;5038892;28;20045;-66
2021/08/17 09:20:45;;;;;;;2.47;1.20;;;;;;;16.09;100.00;100345.16;5043261;28;20044;-67
2021/08/17 09:23:29;;;;;;;3.97;1.10;;;;;;;16.14;100.00;100352.09;5026103;28;20037;-67
2021/08/17 09:25:58;;;;;;;6.75;1.10;;;;;;;16.12;100.00;100349.78;5042384;28;20036;-65
2021/08/17 09:28:32;;;;;;;3.65;1.35;;;;;;;16.23;100.00;100355.13;5036077;28;20037;-67
2021/08/17 09:30:59;;;;;;;2.40;1.00;;;;;;;16.35;100.00;100356.59;5040395;28;20032;-65
2021/08/17 09:33:39;;;;;;;1.58;1.10;;;;;;;16.01;100.00;100357.22;5036922;28;20047;-67
2021/08/17 09:36:05;;;;;;;4.55;1.00;;;;;;;16.21;100.00;100354.75;5036192;28;20041;-64
2021/08/17 09:38:32;;;;;;;1.88;1.13;;;;;;;16.33;100.00;100353.50;5040219;28;20166;-68
2021/08/17 09:40:59;;;;;;;2.50;0.93;;;;;;;16.40;100.00;100361.59;5038876;28;20075;-68
2021/08/17 09:43:26;;;;;;;3.35;1.67;;;;;;;16.47;100.00;100359.63;5035534;28;20090;-67
2021/08/17 09:45:52;;;;;;;1.15;0.70;;;;;;;16.38;100.00;100347.63;5019530;28;20481;-66
2021/08/17 09:48:30;;;;;;;1.25;0.63;;;;;;;16.35;100.00;100354.66;5045944;28;20071;-67
2021/08/17 09:50:56;;;;;;;1.73;0.65;;;;;;;16.19;100.00;100368.75;5042165;28;20120;-66
2021/08/17 09:53:22;;;;;;;1.35;0.73;;;;;;;16.28;100.00;100363.63;5037200;28;20212;-67
2021/08/17 09:55:50;;;;;;;3.75;1.90;;;;;;;16.28;100.00;100354.69;5038470;28;20028;-67
2021/08/17 09:58:15;;;;;;;1.83;0.95;;;;;;;16.32;100.00;100362.84;5038574;28;20033;-66
2021/08/17 10:00:41;;;;;;;2.08;0.90;;;;;;;16.30;100.00;100365.94;5052714;28;20025;-66
2021/08/17 10:03:07;;;;;;;1.05;0.70;;;;;;;16.32;100.00;100363.59;5024776;28;20037;-65
2021/08/17 10:05:35;;;;;;;2.10;0.90;;;;;;;16.07;100.00;100363.00;5026040;28;20064;-67
2021/08/17 10:08:02;;;;;;;0.73;0.60;;;;;;;16.00;100.00;100361.13;5024881;28;20106;-67
2021/08/17 10:10:28;;;;;;;2.47;1.00;;;;;;;15.97;100.00;100359.19;5031789;28;20037;-67
2021/08/17 10:12:53;;;;;;;2.92;0.80;;;;;;;16.19;100.00;100359.81;5026819;28;20029;-64
2021/08/17 10:15:21;;;;;;;1.77;0.75;;;;;;;16.24;100.00;100370.25;5026160;28;20037;-67
2021/08/17 10:17:47;;;;;;;0.77;0.60;;;;;;;16.20;100.00;100361.38;5023855;28;20656;-65
2021/08/17 10:20:16;;;;;;;2.65;0.95;;;;;;;16.23;100.00;100361.34;5023312;28;20041;-66
2021/08/17 10:22:43;;;;;;;1.40;0.90;;;;;;;16.40;100.00;100367.81;5021028;28;20122;-67
2021/08/17 10:25:15;;;;;;;1.02;0.80;;;;;;;16.50;100.00;100361.53;5033594;28;20059;-67
2021/08/17 10:27:41;;;;;;;1.10;0.80;;;;;;;16.72;100.00;100356.69;5020418;28;20058;-68
2021/08/17 10:30:22;;;;;;;3.78;0.73;;;;;;;16.49;100.00;100351.09;5048109;28;20064;-67
2021/08/17 10:32:49;;;;;;;1.38;0.60;;;;;;;16.50;100.00;100353.41;5043845;28;20025;-66
2021/08/17 10:35:27;;;;;;;2.47;1.35;;;;;;;16.34;100.00;100357.78;5036679;28;20405;-67
2021/08/17 10:38:08;;;;;;;4.13;0.75;;;;;;;16.16;100.00;100347.78;5030156;28;20033;-67
2021/08/17 10:40:51;;;;;;;4.65;0.52;;;;;;;16.27;100.00;100356.66;5034709;28;20035;-66
2021/08/17 10:43:27;;;;;;;3.50;1.92;;;;;;;16.21;100.00;100352.03;5031363;28;20537;-68
2021/08/17 10:46:00;;;;;;;1.10;0.90;;;;;;;16.49;100.00;100351.84;5027415;28;20444;-66
2021/08/17 10:48:44;;;;;;;1.52;0.75;;;;;;;16.52;100.00;100351.03;5031041;28;20043;-67
2021/08/17 10:51:31;;;;;;;2.88;0.85;;;;;;;16.39;100.00;100354.63;5045565;28;20518;-68
2021/08/17 10:53:59;;;;;;;4.90;1.38;;;;;;;16.44;100.00;100351.47;5056821;28;20135;-67
2021/08/17 10:56:30;;;;;;;1.45;0.85;;;;;;;16.80;100.00;100350.00;5048517;28;20037;-67
2021/08/17 10:58:57;;;;;;;2.78;1.10;;;;;;;16.56;100.00;100351.00;5041771;28;20036;-67
2021/08/17 11:01:32;;;;;;;3.03;1.10;;;;;;;16.52;100.00;100356.47;5043704;28;20390;-66
2021/08/17 11:03:58;;;;;;;5.82;1.35;;;;;;;16.69;100.00;100352.81;5051280;28;20394;-67
2021/08/17 11:06:47;;;;;;;2.67;1.17;;;;;;;16.75;100.00;100353.16;5015844;28;20111;-66
2021/08/17 11:09:16;;;;;;;5.47;1.10;;;;;;;16.79;100.00;100362.06;5049523;28;20048;-66
2021/08/17 11:12:06;;;;;;;2.15;1.20;;;;;;;16.89;100.00;100347.56;5041933;28;20029;-68
2021/08/17 11:14:33;;;;;;;5.15;0.80;;;;;;;16.90;100.00;100352.59;5018330;28;20052;-67
2021/08/17 11:17:05;;;;;;;1.70;0.75;;;;;;;17.07;100.00;100354.38;5039227;28;20036;-67
2021/08/17 11:19:35;;;;;;;3.70;1.00;;;;;;;17.18;100.00;100354.25;5029334;28;20034;-67